Airfield :
LOGIN :

Register | Disclaimer

   EN    FR    IT 

 










Legend :    VFR   Marginal VFR   IFR   Intensive IFR   Very Intensive IFR
Visi :
Ceiling :
>= 8 km
>= 3000ft
5 to 8 km
1000 to 3000 ft
1500m to 5 km
500 to 1000 ft
800 to 1500m
200 to 500 ft
< 800m
< 200 ft
Symbols :   Thunderstorms  Fog  Heavy snow  Heavy precipitations  Wind > 20 kt
SIGMETs :     Misc.  Thunderstorms  Icing  Turbulence  Mountain Waves  Volcanic Ashes






- Airport Elevation : 1234 ft
- IATA code : LUX


ELLX - Luxembourg Findel

CURRENT METAR :
  • 262050Z 23006KT CAVOK M01/M02 Q1019 NOSIG

EXPIRED METARs :
  • 262020Z 23008KT CAVOK M01/M02 Q1020 NOSIG
  • 261950Z 23008KT CAVOK M01/M02 Q1019 NOSIG
  • 261920Z 23007KT CAVOK M01/M02 Q1020 NOSIG
  • 261850Z 23007KT 9999 FEW008 SCT050 M00/M01 Q1020 NOSIG
  • 261820Z 23008KT 200V260 9999 FEW008 SCT050 00/M01 Q1020 BECMG BKN015

TAF TAF ELLX
Valid from the 26 at 18:00 until the 28 at 00:00 UTC


261700Z 2618/2724 25012KT 9999 SCT008 BKN012
BECMG 2618/2620 21006KT BKN025
BECMG 2623/2701 4500 -SN BR BKN012
TEMPO 2702/2710 0800 SN FG OVC002
PROB30
TEMPO 2710/2713 2500 -FZDZ BKN004
TEMPO 2713/2721 2500 -DZ BKN006
ATIS : +352 4798 27300
Met : +352 4798 27010 / 27050



MET'MAP, your aeronautical weather chart ! - Copyright ORBIFLY December 2007 - Disclaimer

ORBIFLY MET'MAP TEAM :

Programming & Development : Alexandra Zaïnal
Concept & original design : Baudouin d'Aumeries
Assistance for programming : Marc-Olivier Méhu
Technical & hardware support : Manuel Goepfert

Contact : metmap@orbifly.com




SOURCES & CREDITS :

   NOAA